コロンボ の空港の天気 - METARとTAF

バンダラナイケ国際空港 ( VCBI / CMB ) - スリランカ コロンボ
飛行場実況気象(Metar)
観測時間05/20 06:40 IST (05/20 01:10 UTC)
風向・風速南東 1m/s
視程10km以上
天気現象
全天の4割程度の雲 雲底高度 550m
気温27℃
湿度94%
気圧1009hPa
METARVCBI 200110Z 14002KT 9999 SCT018 27/26 Q1009 NOSIG
過去の天気等 Google飛行場航空写真 Wunderground天気予報

過去48時間のMETAR

飛行場予報(TAF)
発表時間: 5/20 04:30 IST (5/19 23:00 UTC)
予報対象時間: 20日5時 IST ~ 21日11時 IST
風向・風速南西 4m/s
視程10km以上
全天の4割程度の雲 雲底高度 550m
20日15時 IST ~ 20日20時 IST に 確率 30% で一時的に
視程8000m
20日19時 IST ~ 20日21時 IST に徐々に
風向・風速南南東 3m/s
TAF VCBI 192300Z 2000/2106 23008KT 9999 SCT018 TX32/2008Z TN26/2100Z
BECMG
PROB30 TEMPO 2010/2015 8000 -TSRA/SHRA SCT016 FEW020CB
BECMG 2014/2016 16006KT